Time;durP1;ratioP1;P1;durP2;ratioP2;P2;SDS_P1;SDS_P2;PMS_P1;PMS_P2;Temp;Humidity;BMP_temperature;BMP_pressure;BME280_temperature;BME280_humidity;BME280_pressure;Samples;Min_cycle;Max_cycle;Signal;HPM_P1;HPM_P2
2023/09/16 00:01:43;;;;;;;23.45;13.32;;;;;;;-145.69;73.28;52119.63;5113557;28;20204;-82
2023/09/16 00:04:11;;;;;;;20.77;11.25;;;;;;;-145.69;73.22;52111.69;5113773;28;20201;-82
2023/09/16 00:06:37;;;;;;;28.00;12.95;;;;;;;-145.69;73.84;52083.97;5113287;28;20217;-82
2023/09/16 00:09:04;;;;;;;19.85;10.82;;;;;;;-145.69;73.40;52115.66;5113526;28;20193;-83
2023/09/16 00:11:30;;;;;;;21.17;11.35;;;;;;;-145.69;72.86;52107.72;5113603;28;20197;-82
2023/09/16 00:13:57;;;;;;;21.65;12.00;;;;;;;-145.69;74.79;52133.47;5113532;28;20243;-82
2023/09/16 00:16:23;;;;;;;20.55;10.77;;;;;;;-145.69;73.37;52127.53;5113487;28;20194;-82
2023/09/16 00:18:52;;;;;;;24.38;12.65;;;;;;;-145.69;75.51;52103.78;5113448;28;20275;-82
2023/09/16 00:21:18;;;;;;;24.50;13.55;;;;;;;-145.69;75.10;52117.63;5113478;28;20201;-82
2023/09/16 00:23:45;;;;;;;24.42;13.38;;;;;;;-145.69;76.12;52119.63;5113680;28;20254;-82
2023/09/16 00:26:13;;;;;;;28.80;13.95;;;;;;;-145.69;75.75;52091.88;5113778;28;20190;-82
2023/09/16 00:28:40;;;;;;;27.17;13.48;;;;;;;-145.69;73.86;52103.78;5133843;27;20224;-82
2023/09/16 00:31:07;;;;;;;23.65;13.57;;;;;;;-145.69;74.28;52099.81;5123030;27;20197;-82
2023/09/16 00:33:33;;;;;;;27.58;13.52;;;;;;;-145.69;73.45;52105.75;5093081;28;20289;-83
2023/09/16 00:36:02;;;;;;;24.73;13.15;;;;;;;-145.69;74.05;52115.66;5092957;28;20251;-82
2023/09/16 00:38:28;;;;;;;23.75;13.57;;;;;;;-145.69;76.25;52113.66;5092689;28;20202;-82
2023/09/16 00:40:55;;;;;;;28.65;14.95;;;;;;;-145.69;74.71;52111.69;5092940;28;20198;-83
2023/09/16 00:43:21;;;;;;;23.35;12.65;;;;;;;-145.69;73.77;52105.75;5092853;28;20352;-83
2023/09/16 00:45:48;;;;;;;23.08;12.95;;;;;;;-145.69;73.53;52131.50;5092884;28;20194;-84
2023/09/16 00:48:17;;;;;;;18.85;11.00;;;;;;;-145.69;73.53;52095.84;5092638;28;20217;-82
2023/09/16 00:50:45;;;;;;;21.25;11.70;;;;;;;-145.69;73.50;52091.88;5092626;28;20259;-83
2023/09/16 00:53:15;;;;;;;21.30;11.23;;;;;;;-145.69;73.12;52117.63;5094482;28;20213;-82
2023/09/16 00:55:41;;;;;;;20.35;11.02;;;;;;;-145.69;73.02;52105.75;5098060;28;20216;-82
2023/09/16 00:58:10;;;;;;;20.13;11.57;;;;;;;-145.69;75.45;52131.50;5117068;28;20205;-82
2023/09/16 01:00:37;;;;;;;25.70;12.00;;;;;;;-145.69;74.15;52117.63;5116982;28;20201;-82
2023/09/16 01:03:06;;;;;;;22.13;12.48;;;;;;;-145.69;74.71;52111.69;5119356;27;20198;-82
2023/09/16 01:05:33;;;;;;;21.52;12.27;;;;;;;-145.69;74.22;52115.66;5136871;27;20242;-82
2023/09/16 01:08:00;;;;;;;26.95;14.23;;;;;;;-145.69;75.44;52123.56;5129548;27;20222;-82
2023/09/16 01:10:28;;;;;;;22.10;12.90;;;;;;;-145.69;75.06;52111.69;5116700;28;20652;-82
2023/09/16 01:12:56;;;;;;;24.20;13.07;;;;;;;-145.69;74.68;52133.47;5116333;28;20189;-82
2023/09/16 01:15:27;;;;;;;22.33;12.90;;;;;;;-145.69;74.91;52131.50;5116566;28;20255;-82
2023/09/16 01:18:11;;;;;;;25.38;13.23;;;;;;;-145.69;75.12;52111.69;5116564;28;20229;-82
2023/09/16 01:20:39;;;;;;;28.65;13.82;;;;;;;-145.69;76.28;52082.00;5116781;28;20204;-82
2023/09/16 01:23:06;;;;;;;25.50;12.95;;;;;;;-145.69;74.31;52093.88;5116648;28;20555;-83
2023/09/16 01:25:33;;;;;;;27.85;14.43;;;;;;;-145.69;74.54;52129.50;5136098;27;20303;-83
2023/09/16 01:28:00;;;;;;;20.92;12.48;;;;;;;-145.69;74.07;52105.75;5137020;27;20311;-82
2023/09/16 01:30:30;;;;;;;24.70;12.40;;;;;;;-145.69;75.15;52115.66;5134898;27;20197;-82
2023/09/16 01:33:00;;;;;;;25.23;13.65;;;;;;;-145.69;74.70;52149.31;5132388;27;20201;-82
2023/09/16 01:35:35;;;;;;;25.65;13.68;;;;;;;-145.69;74.73;52095.84;5136787;27;20192;-83
2023/09/16 01:38:03;;;;;;;24.05;13.02;;;;;;;-145.69;74.74;52127.53;5136584;27;20287;-82
2023/09/16 01:40:30;;;;;;;25.02;14.35;;;;;;;-145.69;74.16;52147.34;5136713;27;20203;-82
2023/09/16 01:42:59;;;;;;;24.60;13.23;;;;;;;-145.69;73.44;52109.72;5136398;27;20204;-82
2023/09/16 01:45:28;;;;;;;26.90;13.90;;;;;;;-145.69;73.89;52123.56;5136012;27;20208;-82
2023/09/16 01:47:54;;;;;;;22.45;11.48;;;;;;;-145.69;73.07;52127.53;5136585;27;20220;-82
2023/09/16 01:50:21;;;;;;;18.58;10.57;;;;;;;-145.69;72.73;52117.63;5136471;27;20203;-82
2023/09/16 01:52:47;;;;;;;17.70;10.40;;;;;;;-145.69;72.58;52145.34;5136497;27;20555;-82
2023/09/16 01:55:14;;;;;;;15.75;9.85;;;;;;;-145.69;72.45;52127.53;5119757;27;20227;-82
2023/09/16 01:57:40;;;;;;;17.92;9.95;;;;;;;-145.69;72.96;52123.56;5115575;28;20217;-81
2023/09/16 02:00:09;;;;;;;21.42;10.82;;;;;;;-145.69;73.59;52127.53;5115835;28;20204;-83
2023/09/16 02:02:36;;;;;;;18.95;10.98;;;;;;;-145.69;73.72;52131.50;5115858;27;20197;-82
2023/09/16 02:05:02;;;;;;;23.92;13.40;;;;;;;-145.69;73.55;52117.63;5115334;28;20193;-82
2023/09/16 02:07:28;;;;;;;23.45;12.82;;;;;;;-145.69;74.31;52123.56;5121875;27;20223;-82
2023/09/16 02:09:55;;;;;;;28.13;13.48;;;;;;;-145.69;75.12;52151.28;5135939;27;20220;-82
2023/09/16 02:12:21;;;;;;;27.60;13.50;;;;;;;-145.69;74.06;52123.56;5136058;27;20197;-82
2023/09/16 02:14:51;;;;;;;25.25;13.23;;;;;;;-145.69;73.28;52105.75;5135978;27;20559;-82
2023/09/16 02:17:19;;;;;;;28.42;13.90;;;;;;;-145.69;74.19;52139.41;5135845;27;20332;-80
2023/09/16 02:19:45;;;;;;;31.95;15.13;;;;;;;-145.69;74.14;52125.56;5135979;27;20199;-81
2023/09/16 02:22:12;;;;;;;25.02;13.35;;;;;;;-145.69;73.97;52135.47;5136060;27;20395;-83
2023/09/16 02:24:38;;;;;;;24.67;12.98;;;;;;;-145.69;73.73;52115.66;5124497;27;20201;-82
2023/09/16 02:27:05;;;;;;;23.95;12.20;;;;;;;-145.69;73.16;52119.63;5115460;28;20208;-82
2023/09/16 02:29:33;;;;;;;20.73;11.00;;;;;;;-145.69;73.06;52135.47;5115184;28;20197;-82
2023/09/16 02:32:00;;;;;;;19.50;11.18;;;;;;;-145.69;73.02;52113.66;5115285;27;20206;-83
2023/09/16 02:34:28;;;;;;;22.25;11.63;;;;;;;-145.69;73.70;52115.66;5115196;28;20202;-83
2023/09/16 02:36:54;;;;;;;29.58;14.20;;;;;;;-145.69;74.12;52115.66;5114998;28;20234;-82
2023/09/16 02:39:21;;;;;;;27.15;13.60;;;;;;;-145.69;73.75;52127.53;5114919;28;20209;-83
2023/09/16 02:41:47;;;;;;;32.63;16.27;;;;;;;-145.69;77.01;52135.47;5113735;28;20208;-82
2023/09/16 02:44:14;;;;;;;40.17;17.30;;;;;;;-145.69;75.20;52127.53;5114859;28;20200;-82
2023/09/16 02:46:40;;;;;;;35.38;15.98;;;;;;;-145.69;76.24;52139.41;5114871;28;20545;-81
2023/09/16 02:49:07;;;;;;;39.25;18.35;;;;;;;-145.69;75.20;52143.38;5114817;28;20228;-83
2023/09/16 02:51:34;;;;;;;40.05;18.70;;;;;;;-145.69;76.22;52111.69;5114477;28;20602;-82
2023/09/16 02:54:01;;;;;;;38.22;18.38;;;;;;;-145.69;76.16;52123.56;5114673;28;20205;-82
2023/09/16 02:56:28;;;;;;;42.17;18.63;;;;;;;-145.69;75.37;52119.63;5114680;28;20201;-83
2023/09/16 02:58:54;;;;;;;39.22;18.50;;;;;;;-145.69;75.56;52117.63;5113317;28;20205;-79
2023/09/16 03:01:21;;;;;;;39.72;18.88;;;;;;;-145.69;75.90;52131.50;5112856;28;20197;-82
2023/09/16 03:03:47;;;;;;;34.50;17.17;;;;;;;-145.69;75.31;52123.56;5131797;27;20269;-82
2023/09/16 03:06:14;;;;;;;46.97;19.55;;;;;;;-145.69;76.39;52113.66;5134940;27;20193;-83
2023/09/16 03:08:41;;;;;;;36.22;17.42;;;;;;;-145.69;76.22;52111.69;5135056;27;20281;-82
2023/09/16 03:11:08;;;;;;;44.05;20.13;;;;;;;-145.69;76.76;52147.34;5125516;27;20676;-83
2023/09/16 03:13:34;;;;;;;37.70;17.85;;;;;;;-145.69;75.83;52143.38;5114522;28;20208;-83
2023/09/16 03:16:16;;;;;;;44.83;19.38;;;;;;;-145.69;75.71;52123.56;5113976;28;20275;-83
2023/09/16 03:18:46;;;;;;;37.00;17.83;;;;;;;-145.69;76.32;52115.66;5114220;28;20229;-83
2023/09/16 03:21:14;;;;;;;40.30;18.20;;;;;;;-145.69;76.95;52127.53;5114567;28;20204;-82
2023/09/16 03:23:42;;;;;;;37.80;17.50;;;;;;;-145.69;76.74;52111.69;5114324;28;20225;-82
2023/09/16 03:26:10;;;;;;;36.50;17.65;;;;;;;-145.69;75.42;52127.53;5127874;27;20654;-81
2023/09/16 03:28:40;;;;;;;39.53;19.85;;;;;;;-145.69;76.75;52133.47;5133919;27;20449;-83
2023/09/16 03:31:06;;;;;;;37.05;17.60;;;;;;;-145.69;75.72;52099.81;5134651;27;20211;-82
2023/09/16 03:33:33;;;;;;;27.92;14.35;;;;;;;-145.69;74.97;52115.66;5127190;27;20201;-83
2023/09/16 03:36:00;;;;;;;32.30;16.17;;;;;;;-145.69;76.63;52095.84;5114045;28;20205;-81
2023/09/16 03:38:29;;;;;;;36.85;17.23;;;;;;;-145.69;76.19;52117.63;5113624;27;20198;-84
2023/09/16 03:40:57;;;;;;;37.10;17.75;;;;;;;-145.69;75.52;52119.63;5113993;28;20219;-83
2023/09/16 03:43:24;;;;;;;37.25;17.77;;;;;;;-145.69;76.37;52125.56;5113865;28;20202;-83
2023/09/16 03:45:50;;;;;;;37.08;17.77;;;;;;;-145.69;76.52;52139.41;5113594;28;20197;-82
2023/09/16 03:48:17;;;;;;;41.15;18.63;;;;;;;-145.69;76.62;52101.78;5113576;28;20400;-82
2023/09/16 03:50:44;;;;;;;38.28;17.38;;;;;;;-145.69;75.36;52147.34;5113783;28;20204;-82
2023/09/16 03:53:11;;;;;;;40.47;18.35;;;;;;;-145.69;75.83;52109.72;5113657;28;20570;-83
2023/09/16 03:55:37;;;;;;;40.67;18.27;;;;;;;-145.69;76.24;52155.25;5113784;28;20193;-83
2023/09/16 03:58:05;;;;;;;44.22;19.10;;;;;;;-145.69;77.13;52101.78;5113584;28;20201;-82
2023/09/16 04:00:31;;;;;;;40.22;19.02;;;;;;;-145.69;75.29;52125.56;5113470;28;20208;-83
2023/09/16 04:02:58;;;;;;;37.35;17.60;;;;;;;-145.69;74.98;52111.69;5123438;27;20205;-83
2023/09/16 04:05:25;;;;;;;38.00;16.90;;;;;;;-145.69;75.69;52125.56;5134175;27;20207;-83
2023/09/16 04:07:51;;;;;;;29.48;15.05;;;;;;;-145.69;74.51;52115.66;5134238;27;20225;-82
2023/09/16 04:10:18;;;;;;;40.10;17.92;;;;;;;-145.69;75.44;52113.66;5133927;27;20201;-84
2023/09/16 04:12:44;;;;;;;34.90;17.02;;;;;;;-145.69;75.70;52153.28;5134092;27;20205;-84
2023/09/16 04:15:12;;;;;;;42.90;17.70;;;;;;;-145.69;75.72;52159.22;5134577;27;20204;-82
2023/09/16 04:17:39;;;;;;;39.10;18.17;;;;;;;-145.69;75.60;52111.69;5134111;27;20231;-83
2023/09/16 04:20:06;;;;;;;31.70;15.25;;;;;;;-145.69;76.20;52141.41;5134237;27;20201;-83
2023/09/16 04:22:33;;;;;;;31.95;16.17;;;;;;;-145.69;75.65;52159.22;5134098;27;20207;-82
2023/09/16 04:24:59;;;;;;;34.25;15.75;;;;;;;-145.69;75.09;52143.38;5133638;27;20199;-83
2023/09/16 04:27:26;;;;;;;32.22;14.43;;;;;;;-145.69;75.28;52153.28;5133396;27;20226;-82
2023/09/16 04:29:52;;;;;;;28.65;14.82;;;;;;;-145.69;74.71;52125.56;5123167;27;20224;-82
2023/09/16 04:32:20;;;;;;;29.45;13.98;;;;;;;-145.69;74.63;52153.28;5117515;28;20201;-82
2023/09/16 04:34:47;;;;;;;30.58;14.15;;;;;;;-145.69;74.33;52141.41;5133580;27;20196;-83
2023/09/16 04:37:14;;;;;;;32.13;13.70;;;;;;;-145.69;74.39;52151.28;5137327;27;20193;-82
2023/09/16 04:39:40;;;;;;;30.70;14.32;;;;;;;-145.69;73.92;52163.19;5137136;27;20655;-83
2023/09/16 04:42:07;;;;;;;24.95;12.95;;;;;;;-145.69;73.15;52155.25;5123751;27;20193;-83
2023/09/16 04:44:38;;;;;;;21.45;12.85;;;;;;;-145.69;73.35;52127.53;5117498;27;20690;-83
2023/09/16 04:47:07;;;;;;;28.50;13.10;;;;;;;-145.69;74.81;52135.47;5117577;28;20200;-82
2023/09/16 04:49:35;;;;;;;21.92;11.30;;;;;;;-145.69;74.91;52127.53;5116968;28;20278;-81
2023/09/16 04:52:03;;;;;;;29.85;13.20;;;;;;;-145.69;77.03;52175.06;5117030;28;20197;-82
2023/09/16 04:54:31;;;;;;;28.85;13.70;;;;;;;-145.69;76.16;52129.50;5116789;28;20205;-83
2023/09/16 04:56:58;;;;;;;24.80;12.32;;;;;;;-145.69;75.18;52181.00;5100757;28;20201;-83
2023/09/16 04:59:24;;;;;;;33.55;14.32;;;;;;;-145.69;74.91;52141.41;5096484;28;20269;-82
2023/09/16 05:01:52;;;;;;;24.55;12.13;;;;;;;-145.69;74.18;52121.59;5102171;27;20200;-83
2023/09/16 05:04:19;;;;;;;23.42;11.52;;;;;;;-145.69;73.53;52159.22;5137396;27;20200;-83
2023/09/16 05:06:47;;;;;;;18.65;10.40;;;;;;;-145.69;73.50;52123.56;5137284;27;20659;-83
2023/09/16 05:09:13;;;;;;;28.55;13.57;;;;;;;-145.69;74.46;52135.47;5136935;27;20228;-82
2023/09/16 05:11:39;;;;;;;24.25;12.43;;;;;;;-145.69;74.52;52127.53;5135802;27;20197;-82
2023/09/16 05:14:06;;;;;;;30.05;13.85;;;;;;;-145.69;75.70;52131.50;5137449;27;20208;-83
2023/09/16 05:16:32;;;;;;;25.70;12.80;;;;;;;-145.69;76.19;52141.41;5133661;27;20551;-82
2023/09/16 05:18:59;;;;;;;23.90;12.50;;;;;;;-145.69;76.78;52117.63;5095759;28;20233;-83
2023/09/16 05:21:25;;;;;;;21.38;12.23;;;;;;;-145.69;77.05;52155.25;5096160;28;20206;-82
2023/09/16 05:23:53;;;;;;;26.83;12.77;;;;;;;-145.69;77.98;52139.41;5096053;28;20202;-82
2023/09/16 05:26:20;;;;;;;27.05;14.38;;;;;;;-145.69;77.61;52161.19;5096062;28;20280;-83
2023/09/16 05:28:46;;;;;;;27.65;13.10;;;;;;;-145.69;76.99;52115.66;5095983;28;20225;-82
2023/09/16 05:31:13;;;;;;;27.33;12.48;;;;;;;-145.69;76.75;52131.50;5096163;28;20194;-82
2023/09/16 05:33:40;;;;;;;21.63;11.85;;;;;;;-145.69;76.43;52159.22;5117899;27;20204;-82
2023/09/16 05:36:06;;;;;;;23.23;12.13;;;;;;;-145.69;76.87;52115.66;5115983;28;20291;-83
2023/09/16 05:38:33;;;;;;;21.80;11.70;;;;;;;-145.69;76.72;52127.53;5115734;28;20200;-83
2023/09/16 05:41:01;;;;;;;23.20;13.13;;;;;;;-145.69;77.35;52103.78;5106711;27;20436;-82
2023/09/16 05:43:27;;;;;;;21.92;11.90;;;;;;;-145.69;76.36;52123.56;5095769;28;20450;-83
2023/09/16 05:45:54;;;;;;;21.17;10.90;;;;;;;-145.69;76.24;52123.56;5094873;28;20201;-83
2023/09/16 05:48:20;;;;;;;20.02;11.88;;;;;;;-145.69;76.39;52117.63;5095524;28;20647;-84
2023/09/16 05:50:56;;;;;;;19.55;10.48;;;;;;;-145.69;76.29;52087.94;5095729;28;20221;-83
2023/09/16 05:53:22;;;;;;;20.10;11.13;;;;;;;-145.69;76.63;52139.41;5095691;28;20323;-84
2023/09/16 05:55:49;;;;;;;18.77;10.60;;;;;;;-145.69;76.68;52111.69;5095563;28;20564;-83
2023/09/16 05:58:16;;;;;;;17.17;10.48;;;;;;;-145.69;77.24;52123.56;5095521;28;20735;-83
2023/09/16 06:00:43;;;;;;;17.35;10.25;;;;;;;-145.69;77.32;52143.38;5095255;28;20217;-82
2023/09/16 06:03:09;;;;;;;16.38;10.35;;;;;;;-145.69;76.43;52095.84;5122139;27;20200;-82
2023/09/16 06:05:36;;;;;;;15.60;9.70;;;;;;;-145.69;77.03;52121.59;5136061;27;20228;-83
2023/09/16 06:08:03;;;;;;;13.88;9.38;;;;;;;-145.69;76.51;52115.66;5136437;27;20192;-83
2023/09/16 06:10:29;;;;;;;16.98;9.48;;;;;;;-145.69;76.98;52083.97;5128877;27;20716;-83
2023/09/16 06:12:56;;;;;;;13.60;9.18;;;;;;;-145.69;76.94;52080.00;5115750;28;20564;-82
2023/09/16 06:15:24;;;;;;;14.80;8.57;;;;;;;-145.69;77.48;52087.94;5115347;28;20202;-83
2023/09/16 06:17:50;;;;;;;13.23;8.48;;;;;;;-145.69;77.73;52099.81;5115065;28;20229;-83
2023/09/16 06:20:16;;;;;;;17.23;8.80;;;;;;;-145.69;77.50;52087.94;5115551;28;20201;-84
2023/09/16 06:22:43;;;;;;;13.95;8.57;;;;;;;-145.69;77.68;52074.06;5115249;28;20212;-82
2023/09/16 06:25:10;;;;;;;10.40;7.10;;;;;;;-145.69;78.11;52082.00;5115272;28;20209;-83
2023/09/16 06:27:36;;;;;;;11.35;7.82;;;;;;;-145.69;77.85;52115.66;5115181;28;20667;-83
2023/09/16 06:30:03;;;;;;;13.15;7.70;;;;;;;-145.69;78.58;52076.03;5115009;28;20233;-83
2023/09/16 06:32:31;;;;;;;9.32;6.97;;;;;;;-145.69;78.33;52085.94;5120549;27;20196;-84
2023/09/16 06:34:57;;;;;;;10.85;7.40;;;;;;;-145.69;77.80;52099.81;5134283;27;20236;-83
2023/09/16 06:37:24;;;;;;;11.50;7.43;;;;;;;-145.69;78.21;52083.97;5135562;27;20200;-82
2023/09/16 06:39:50;;;;;;;14.70;7.25;;;;;;;-145.69;77.89;52068.13;5135612;27;20209;-83
2023/09/16 06:42:17;;;;;;;10.90;7.60;;;;;;;-145.69;78.81;52119.63;5133449;27;20192;-83
2023/09/16 06:44:43;;;;;;;9.98;7.00;;;;;;;-145.69;79.00;52076.03;5135439;27;20212;-83
2023/09/16 06:47:09;;;;;;;8.95;6.53;;;;;;;-145.69;79.15;52068.13;5135248;27;20215;-84
2023/09/16 06:49:37;;;;;;;8.57;6.03;;;;;;;-145.69;78.77;52070.09;5101081;27;20226;-83
2023/09/16 06:52:05;;;;;;;8.00;5.68;;;;;;;-145.69;78.53;52052.28;5093892;28;20201;-83
2023/09/16 06:54:31;;;;;;;7.07;5.38;;;;;;;-145.69;78.05;52048.31;5094050;28;20229;-83
2023/09/16 06:57:00;;;;;;;7.75;5.80;;;;;;;-145.69;78.55;52044.38;5094146;28;20202;-83
2023/09/16 06:59:28;;;;;;;8.00;5.18;;;;;;;-145.69;79.53;52072.09;5094164;28;20603;-83
2023/09/16 07:01:55;;;;;;;5.85;4.72;;;;;;;-145.69;78.82;52083.97;5094963;28;20213;-82
2023/09/16 07:04:21;;;;;;;6.82;4.90;;;;;;;-145.69;78.65;52091.88;5120917;27;20197;-82
2023/09/16 07:06:49;;;;;;;6.40;4.53;;;;;;;-145.69;77.99;52070.09;5134879;27;20200;-82
2023/09/16 07:09:16;;;;;;;5.57;4.75;;;;;;;-145.69;79.04;52072.09;5134840;27;20228;-83
2023/09/16 07:11:42;;;;;;;7.82;4.55;;;;;;;-145.69;79.33;52072.09;5134728;27;20208;-83
2023/09/16 07:14:08;;;;;;;9.38;4.80;;;;;;;-145.69;79.01;52089.91;5134753;27;20204;-83
2023/09/16 07:16:36;;;;;;;4.55;3.58;;;;;;;-145.69;78.21;52038.44;5134811;27;20205;-83
2023/09/16 07:19:03;;;;;;;5.00;3.90;;;;;;;-145.69;78.05;52070.09;5134679;27;20737;-82
2023/09/16 07:21:31;;;;;;;5.68;3.70;;;;;;;-145.69;78.11;52099.81;5134390;27;20686;-82
2023/09/16 07:24:01;;;;;;;3.95;3.05;;;;;;;-145.69;76.83;52070.09;5129217;27;20208;-82
2023/09/16 07:26:27;;;;;;;5.00;3.70;;;;;;;-145.69;78.45;52083.97;5134373;27;20200;-82
2023/09/16 07:28:54;;;;;;;8.35;4.05;;;;;;;-145.69;78.48;52064.16;5134463;27;20238;-82
2023/09/16 07:31:20;;;;;;;4.13;3.15;;;;;;;-145.69;76.87;52072.09;5134147;27;20678;-81
2023/09/16 07:33:47;;;;;;;4.68;3.13;;;;;;;-145.69;79.00;52095.84;5134012;27;20199;-82
2023/09/16 07:36:13;;;;;;;4.28;3.55;;;;;;;-145.69;75.25;52032.47;5134621;27;20203;-82
2023/09/16 07:38:40;;;;;;;4.75;3.20;;;;;;;-145.69;75.80;52044.38;5134783;27;20197;-82
2023/09/16 07:41:07;;;;;;;3.75;2.95;;;;;;;-145.69;76.39;52066.16;5134110;27;20193;-82
2023/09/16 07:43:34;;;;;;;6.57;2.95;;;;;;;-145.69;70.60;52036.44;5134639;27;20207;-82
2023/09/16 07:46:00;;;;;;;3.80;3.08;;;;;;;-145.69;72.02;52052.28;5134300;27;20201;-81
2023/09/16 07:48:27;;;;;;;3.42;2.97;;;;;;;-145.69;75.42;52066.16;5134234;27;20197;-81
2023/09/16 07:50:54;;;;;;;5.15;3.20;;;;;;;-145.69;73.82;52042.38;5133947;27;20224;-80
2023/09/16 07:53:20;;;;;;;4.55;3.55;;;;;;;-145.69;74.01;52036.44;5128801;27;20201;-81
2023/09/16 07:55:47;;;;;;;5.07;4.03;;;;;;;-145.69;74.14;52014.66;5114299;28;20202;-81
2023/09/16 07:58:15;;;;;;;4.80;3.78;;;;;;;-145.69;74.81;52036.44;5113934;28;20671;-82
2023/09/16 08:00:41;;;;;;;5.68;4.05;;;;;;;-145.69;72.21;52080.00;5114401;28;20674;-81
2023/09/16 08:03:07;;;;;;;5.90;4.43;;;;;;;-145.69;66.88;52044.38;5123463;27;20189;-81
2023/09/16 08:05:34;;;;;;;5.65;4.53;;;;;;;-145.69;71.85;52012.69;5122207;27;20235;-81
2023/09/16 08:08:01;;;;;;;8.75;4.53;;;;;;;-145.69;64.87;52020.59;5113695;28;20206;-81
2023/09/16 08:10:28;;;;;;;5.18;4.20;;;;;;;-145.69;64.74;52020.59;5113419;28;20587;-81
2023/09/16 08:12:54;;;;;;;6.13;3.97;;;;;;;-145.69;61.43;52020.59;5114538;28;20595;-81
2023/09/16 08:15:23;;;;;;;5.07;4.22;;;;;;;-145.69;62.99;52024.56;5113312;28;20369;-82
2023/09/16 08:17:50;;;;;;;4.63;3.83;;;;;;;-145.69;61.41;51998.81;5108626;28;20261;-81
2023/09/16 08:20:18;;;;;;;5.72;3.95;;;;;;;-145.69;57.28;51992.88;5113097;28;20572;-80
2023/09/16 08:22:45;;;;;;;4.57;3.58;;;;;;;-145.69;58.87;51939.41;5112825;28;20601;-82
2023/09/16 08:25:11;;;;;;;5.85;4.10;;;;;;;-145.69;58.43;51973.06;5113036;28;20201;-81
2023/09/16 08:27:38;;;;;;;3.35;2.88;;;;;;;-145.69;54.74;51982.97;5101023;28;20193;-80
2023/09/16 08:30:05;;;;;;;4.85;2.88;;;;;;;-145.69;54.63;51949.31;5092702;28;20229;-81
2023/09/16 08:32:33;;;;;;;4.60;3.28;;;;;;;-145.69;53.36;51933.47;5102890;28;20200;-80
2023/09/16 08:35:00;;;;;;;3.95;3.13;;;;;;;-145.69;52.49;51943.38;5123485;27;20331;-82
2023/09/16 08:37:26;;;;;;;6.95;3.15;;;;;;;-145.69;51.72;51949.31;5093009;28;20197;-82
2023/09/16 08:39:53;;;;;;;4.22;2.50;;;;;;;-145.69;50.79;51913.69;5092545;28;20205;-82
2023/09/16 08:42:26;;;;;;;3.85;2.53;;;;;;;-145.69;47.86;51955.25;5110743;28;20220;-82
2023/09/16 08:44:54;;;;;;;3.25;2.50;;;;;;;-145.69;48.60;51959.22;5113175;28;20197;-82
2023/09/16 08:47:28;;;;;;;4.55;3.05;;;;;;;-145.69;52.86;51957.25;5112975;28;20209;-82
2023/09/16 08:50:04;;;;;;;5.65;3.80;;;;;;;-145.69;55.98;51957.25;5112585;28;20245;-80
2023/09/16 08:52:36;;;;;;;6.25;3.22;;;;;;;-145.69;55.72;51957.25;5113082;28;20204;-82
2023/09/16 08:55:04;;;;;;;5.97;3.97;;;;;;;-145.69;55.69;52006.75;5112428;28;20561;-82
2023/09/16 08:57:30;;;;;;;7.78;4.13;;;;;;;-145.69;56.90;51961.19;5112803;28;20206;-83
2023/09/16 08:59:57;;;;;;;7.30;4.03;;;;;;;-145.69;56.49;51969.13;5112673;28;20197;-82
2023/09/16 09:02:27;;;;;;;11.30;4.40;;;;;;;-145.69;56.08;52006.75;5113797;28;20201;-81
2023/09/16 09:04:55;;;;;;;6.45;4.22;;;;;;;-145.69;56.85;51996.84;5112350;28;20201;-81
2023/09/16 09:07:25;;;;;;;6.47;4.50;;;;;;;-145.69;56.81;52008.72;5112764;28;20206;-82
2023/09/16 09:09:51;;;;;;;6.35;4.50;;;;;;;-145.69;56.80;51994.88;5112925;28;20228;-81
2023/09/16 09:12:18;;;;;;;6.03;4.13;;;;;;;-145.69;56.93;52010.69;5109285;28;20683;-82
2023/09/16 09:14:46;;;;;;;6.90;4.53;;;;;;;-145.69;56.88;51981.00;5103870;28;20201;-83
2023/09/16 09:17:13;;;;;;;7.68;4.85;;;;;;;-145.69;56.11;51998.81;5096191;28;20230;-82
2023/09/16 09:19:40;;;;;;;6.13;4.15;;;;;;;-145.69;56.22;52000.81;5112453;28;20679;-82
2023/09/16 09:22:09;;;;;;;7.32;4.43;;;;;;;-145.69;58.15;51973.06;5116644;28;20205;-82
2023/09/16 09:24:35;;;;;;;8.48;4.20;;;;;;;-145.69;57.91;51996.84;5101996;28;20202;-80
2023/09/16 09:27:08;;;;;;;6.40;4.30;;;;;;;-145.69;57.61;51981.00;5097266;28;20572;-81
2023/09/16 09:29:38;;;;;;;5.63;4.22;;;;;;;-145.69;57.31;51984.97;5111678;28;20217;-81
2023/09/16 09:32:05;;;;;;;7.60;4.20;;;;;;;-145.69;56.78;51977.03;5120137;27;20193;-80
2023/09/16 09:34:31;;;;;;;10.52;3.97;;;;;;;-145.69;55.66;51957.25;5116150;28;20200;-82
2023/09/16 09:37:00;;;;;;;6.18;3.85;;;;;;;-145.69;53.63;51981.00;5117439;28;20213;-83
2023/09/16 09:39:28;;;;;;;5.05;3.67;;;;;;;-145.69;53.36;51941.41;5104797;28;20226;-82
2023/09/16 09:41:54;;;;;;;6.95;3.70;;;;;;;-145.69;52.37;51996.84;5108589;27;20613;-82
2023/09/16 09:44:23;;;;;;;3.55;2.70;;;;;;;-145.69;50.73;51969.13;5115913;28;20223;-81
2023/09/16 09:46:52;;;;;;;4.15;2.90;;;;;;;-145.69;49.12;51941.41;5115661;28;20237;-83
2023/09/16 09:49:21;;;;;;;3.83;2.70;;;;;;;-145.69;47.11;51965.16;5115599;28;20205;-83
2023/09/16 09:51:48;;;;;;;3.60;2.60;;;;;;;-145.69;47.24;51935.47;5116821;28;20204;-82
2023/09/16 09:54:18;;;;;;;3.83;2.80;;;;;;;-145.69;44.53;51925.56;5106199;28;20186;-83
2023/09/16 09:56:50;;;;;;;4.13;2.85;;;;;;;-145.69;44.64;51933.47;5095188;28;20205;-84
2023/09/16 09:59:21;;;;;;;3.28;2.53;;;;;;;-145.69;44.48;51899.81;5095330;28;20190;-83
2023/09/16 10:01:49;;;;;;;3.10;2.67;;;;;;;-145.69;44.58;51927.53;5095386;28;20259;-82
2023/09/16 10:04:16;;;;;;;4.57;2.85;;;;;;;-145.69;43.58;51915.66;5112012;27;20194;-83
2023/09/16 10:06:43;;;;;;;3.55;2.63;;;;;;;-145.69;43.25;51903.78;5095369;28;20204;-83
2023/09/16 10:09:11;;;;;;;4.35;3.17;;;;;;;-145.69;42.92;51891.88;5094935;28;20190;-84
2023/09/16 10:11:47;;;;;;;3.42;2.60;;;;;;;-145.69;42.26;51870.13;5112935;27;20243;-82
2023/09/16 10:14:34;;;;;;;4.18;3.10;;;;;;;-145.69;40.57;51858.22;5119417;27;20186;-84
2023/09/16 10:17:02;;;;;;;3.65;2.70;;;;;;;-145.69;40.80;51889.91;5095261;28;20198;-85
2023/09/16 10:19:41;;;;;;;3.50;2.10;;;;;;;-145.69;39.57;51868.13;5095152;28;20209;-84
2023/09/16 10:22:10;;;;;;;3.70;2.47;;;;;;;-145.69;40.01;51878.03;5094683;28;20201;-82
2023/09/16 10:24:41;;;;;;;5.47;2.72;;;;;;;-145.69;39.06;51846.34;5094547;28;20197;-83
2023/09/16 10:27:15;;;;;;;4.80;2.60;;;;;;;-145.69;39.49;51882.00;5095613;28;20198;-83
2023/09/16 10:29:46;;;;;;;3.60;3.10;;;;;;;-145.69;39.47;51885.94;5115819;27;20277;-83
2023/09/16 10:32:14;;;;;;;5.93;2.67;;;;;;;-145.69;39.84;51846.34;5114955;28;20198;-83
2023/09/16 10:34:46;;;;;;;3.72;2.70;;;;;;;-145.69;39.25;51842.38;5115009;28;20735;-83
2023/09/16 10:37:18;;;;;;;4.00;3.13;;;;;;;-145.69;39.71;51834.47;5127331;27;20192;-83
2023/09/16 10:39:46;;;;;;;4.00;3.03;;;;;;;-145.69;39.60;51812.69;5125270;27;20198;-83
2023/09/16 10:42:16;;;;;;;3.83;3.08;;;;;;;-145.69;39.68;51842.38;5098338;28;20195;-84
2023/09/16 10:44:45;;;;;;;4.82;2.88;;;;;;;-145.69;38.55;51848.34;5106025;28;20728;-84
2023/09/16 10:47:13;;;;;;;4.07;2.97;;;;;;;-145.69;39.46;51854.28;5115373;28;20193;-84
2023/09/16 10:49:39;;;;;;;2.90;2.28;;;;;;;-145.69;39.22;51852.28;5114581;28;20250;-83
2023/09/16 10:52:10;;;;;;;4.28;3.15;;;;;;;-145.69;39.21;51810.72;5114467;27;20448;-83
2023/09/16 10:54:44;;;;;;;4.13;2.90;;;;;;;-145.69;39.41;51862.19;5114693;28;20205;-84
2023/09/16 10:57:17;;;;;;;3.08;2.50;;;;;;;-145.69;40.33;51834.47;5114179;28;20541;-83
2023/09/16 10:59:48;;;;;;;3.92;3.00;;;;;;;-145.69;40.93;51882.00;5105879;28;20205;-83
2023/09/16 11:02:34;;;;;;;3.47;2.40;;;;;;;-145.69;39.97;51830.50;5094092;28;20208;-81
2023/09/16 11:05:14;;;;;;;4.35;2.97;;;;;;;-145.69;39.98;51846.34;5094376;28;20204;-84
2023/09/16 11:07:40;;;;;;;5.45;3.35;;;;;;;-145.69;40.15;51862.19;5111338;27;20207;-83
2023/09/16 11:10:19;;;;;;;3.38;2.72;;;;;;;-145.69;40.83;51866.16;5108406;27;20230;-84
2023/09/16 11:12:48;;;;;;;3.47;2.90;;;;;;;-145.69;40.33;51842.38;5093927;28;20220;-83